Time;durP1;ratioP1;P1;durP2;ratioP2;P2;SDS_P1;SDS_P2;PMS_P1;PMS_P2;Temp;Humidity;BMP_temperature;BMP_pressure;BME280_temperature;BME280_humidity;BME280_pressure;Samples;Min_cycle;Max_cycle;Signal;HPM_P1;HPM_P2
2021/03/04 00:01:56;;;;;;;30.83;21.98;;;;;;;14.29;40.52;102687.19;5054862;28;20071;-72
2021/03/04 00:04:21;;;;;;;35.40;24.83;;;;;;;14.38;40.32;102685.44;5054641;28;20040;-72
2021/03/04 00:06:47;;;;;;;36.22;27.40;;;;;;;14.84;39.36;102681.34;5054706;28;20032;-73
2021/03/04 00:09:12;;;;;;;35.65;25.52;;;;;;;14.98;39.17;102674.00;5054073;28;20052;-72
2021/03/04 00:11:38;;;;;;;33.58;25.63;;;;;;;15.12;38.84;102674.09;5054790;28;20021;-72
2021/03/04 00:14:04;;;;;;;28.40;22.48;;;;;;;14.84;39.66;102664.84;5054525;28;20029;-73
2021/03/04 00:16:29;;;;;;;35.28;25.33;;;;;;;15.04;39.24;102670.09;5052986;28;20033;-73
2021/03/04 00:18:55;;;;;;;37.97;25.80;;;;;;;15.26;38.75;102661.22;5054511;28;20438;-73
2021/03/04 00:21:20;;;;;;;35.55;26.02;;;;;;;15.51;38.28;102657.28;5054316;28;20439;-73
2021/03/04 00:23:46;;;;;;;34.72;25.08;;;;;;;15.48;38.20;102661.41;5054180;28;20029;-73
2021/03/04 00:26:11;;;;;;;33.28;23.80;;;;;;;15.53;38.66;102675.13;5054080;28;20036;-72
2021/03/04 00:28:37;;;;;;;34.28;24.20;;;;;;;15.57;38.18;102663.50;5054016;28;20040;-72
2021/03/04 00:31:03;;;;;;;33.67;24.88;;;;;;;15.69;38.03;102661.94;5053339;28;20100;-73
2021/03/04 00:33:28;;;;;;;35.90;25.98;;;;;;;15.75;37.95;102665.44;5052991;28;20029;-72
2021/03/04 00:35:54;;;;;;;38.30;28.50;;;;;;;15.55;38.10;102661.03;5053865;28;20033;-72
2021/03/04 00:38:20;;;;;;;37.30;28.00;;;;;;;15.32;38.44;102662.78;5052806;28;20029;-72
2021/03/04 00:40:45;;;;;;;39.25;29.98;;;;;;;15.57;37.89;102661.59;5053269;28;20049;-72
2021/03/04 00:43:12;;;;;;;40.20;29.23;;;;;;;15.47;37.95;102673.56;5052841;28;20054;-72
2021/03/04 00:45:38;;;;;;;41.58;30.85;;;;;;;15.44;37.89;102665.09;5053955;28;20071;-72
2021/03/04 00:48:04;;;;;;;37.28;28.13;;;;;;;15.54;37.77;102659.41;5052506;28;20064;-82
2021/03/04 00:50:29;;;;;;;39.33;29.70;;;;;;;15.59;37.56;102672.28;5052617;28;20029;-71
2021/03/04 00:52:55;;;;;;;42.53;31.35;;;;;;;15.43;37.75;102669.78;5052458;28;20036;-72
2021/03/04 00:55:20;;;;;;;40.88;31.25;;;;;;;15.64;37.55;102670.31;5053710;28;20117;-81
2021/03/04 00:57:46;;;;;;;41.10;31.08;;;;;;;15.59;37.30;102670.34;5053786;28;20072;-71
2021/03/04 01:00:12;;;;;;;40.45;30.85;;;;;;;15.66;37.33;102670.00;5053807;28;20036;-74
2021/03/04 01:02:38;;;;;;;36.25;29.05;;;;;;;15.64;37.16;102667.56;5053543;28;20059;-73
2021/03/04 01:05:05;;;;;;;39.22;29.92;;;;;;;15.52;37.27;102672.69;5052372;28;20106;-73
2021/03/04 01:07:31;;;;;;;39.90;29.77;;;;;;;15.49;37.46;102674.09;5053519;28;20055;-73
2021/03/04 01:09:56;;;;;;;37.70;27.70;;;;;;;15.32;37.55;102668.28;5052023;28;20029;-73
2021/03/04 01:12:22;;;;;;;36.10;25.75;;;;;;;15.24;37.58;102674.47;5053364;28;20521;-73
2021/03/04 01:14:48;;;;;;;30.52;24.70;;;;;;;15.50;37.04;102674.91;5053412;28;20029;-82
2021/03/04 01:17:15;;;;;;;31.55;23.15;;;;;;;15.31;37.19;102665.84;5053262;28;20029;-72
2021/03/04 01:19:40;;;;;;;32.65;23.83;;;;;;;15.26;37.16;102666.72;5053142;28;20586;-73
2021/03/04 01:22:06;;;;;;;32.97;24.30;;;;;;;15.46;37.05;102666.41;5053310;28;20134;-72
2021/03/04 01:24:31;;;;;;;29.13;22.15;;;;;;;15.38;36.93;102666.28;5053237;28;20040;-73
2021/03/04 01:26:57;;;;;;;30.98;22.10;;;;;;;15.47;36.83;102668.06;5053232;28;20099;-72
2021/03/04 01:29:23;;;;;;;32.90;23.80;;;;;;;15.48;36.59;102655.09;5052876;28;20476;-73
2021/03/04 01:31:49;;;;;;;28.38;22.95;;;;;;;15.50;36.79;102661.97;5051944;28;20017;-72
2021/03/04 01:34:14;;;;;;;28.73;22.23;;;;;;;15.47;36.80;102648.75;5051825;28;20024;-73
2021/03/04 01:36:40;;;;;;;32.88;24.38;;;;;;;15.48;36.69;102661.41;5052899;28;20071;-72
2021/03/04 01:39:06;;;;;;;30.60;23.25;;;;;;;15.62;36.67;102655.19;5052025;28;20052;-73
2021/03/04 01:41:32;;;;;;;34.90;26.17;;;;;;;15.53;36.69;102655.03;5052975;28;20035;-73
2021/03/04 01:43:57;;;;;;;35.05;25.58;;;;;;;15.55;36.51;102658.28;5052948;28;20025;-72
2021/03/04 01:46:24;;;;;;;32.78;26.05;;;;;;;15.57;36.52;102661.59;5052988;28;20155;-73
2021/03/04 01:48:50;;;;;;;40.22;27.70;;;;;;;15.60;36.41;102652.72;5052950;28;20491;-72
2021/03/04 01:51:16;;;;;;;38.97;27.58;;;;;;;15.75;36.33;102655.25;5051660;28;20483;-72
2021/03/04 01:53:41;;;;;;;39.85;29.30;;;;;;;15.83;36.21;102650.97;5052800;28;20064;-73
2021/03/04 01:56:09;;;;;;;35.95;27.83;;;;;;;15.84;36.11;102649.03;5052591;28;20039;-73
2021/03/04 01:58:34;;;;;;;37.83;29.25;;;;;;;15.84;35.79;102643.50;5051433;28;20502;-72
2021/03/04 02:01:00;;;;;;;36.65;29.38;;;;;;;15.64;36.22;102639.16;5052691;28;20064;-73
2021/03/04 02:03:26;;;;;;;38.13;29.98;;;;;;;15.71;35.89;102639.59;5052556;28;20024;-72
2021/03/04 02:05:52;;;;;;;41.03;30.35;;;;;;;15.76;35.85;102645.84;5052871;28;20124;-73
2021/03/04 02:08:26;;;;;;;39.47;30.00;;;;;;;15.79;35.95;102644.41;5052585;28;20053;-73
2021/03/04 02:11:02;;;;;;;39.88;29.75;;;;;;;15.70;35.67;102637.97;5051101;28;20395;-73
2021/03/04 02:13:30;;;;;;;41.25;29.25;;;;;;;15.72;35.80;102642.06;5052439;28;20387;-73
2021/03/04 02:16:02;;;;;;;42.53;31.83;;;;;;;15.55;36.22;102639.81;5052385;28;20021;-73
2021/03/04 02:18:31;;;;;;;40.30;31.33;;;;;;;15.93;35.43;102649.97;5052316;28;20032;-73
2021/03/04 02:21:15;;;;;;;41.60;30.38;;;;;;;15.96;35.11;102641.09;5052616;28;20500;-73
2021/03/04 02:24:04;;;;;;;41.00;30.50;;;;;;;15.98;34.78;102639.66;5052415;28;20055;-73
2021/03/04 02:27:08;;;;;;;39.70;29.67;;;;;;;15.72;35.22;102639.31;5052375;28;20025;-73
2021/03/04 02:30:05;;;;;;;36.78;27.90;;;;;;;15.77;35.37;102628.19;5052156;28;20489;-73
2021/03/04 02:32:33;;;;;;;36.00;28.05;;;;;;;15.90;35.22;102629.34;5043217;28;20045;-73
2021/03/04 02:35:08;;;;;;;39.25;29.80;;;;;;;15.86;35.03;102633.81;5050958;28;20037;-72
2021/03/04 02:37:46;;;;;;;40.42;30.10;;;;;;;15.96;34.86;102632.84;5051370;28;20055;-73
2021/03/04 02:40:13;;;;;;;39.97;29.08;;;;;;;15.59;35.38;102629.03;5050696;28;20120;-72
2021/03/04 02:42:44;;;;;;;44.35;32.50;;;;;;;15.63;35.57;102629.25;5050537;28;20396;-73
2021/03/04 02:45:11;;;;;;;40.63;29.85;;;;;;;15.99;34.98;102624.75;5052194;28;20067;-72
2021/03/04 02:47:40;;;;;;;35.95;28.35;;;;;;;16.14;34.62;102626.41;5051838;28;20155;-73
2021/03/04 02:50:07;;;;;;;37.28;29.90;;;;;;;16.16;34.76;102626.09;5052512;28;20029;-73
2021/03/04 02:52:34;;;;;;;41.00;29.60;;;;;;;16.19;34.80;102625.50;5054515;28;20029;-73
2021/03/04 02:55:02;;;;;;;41.40;28.00;;;;;;;15.92;35.13;102620.75;5056075;28;20033;-73
2021/03/04 02:57:29;;;;;;;23.13;16.35;;;;;;;15.21;36.52;102626.31;5056072;28;20052;-73
2021/03/04 02:59:56;;;;;;;18.10;15.20;;;;;;;15.04;36.77;102606.75;5054718;28;20040;-70
2021/03/04 03:02:22;;;;;;;20.35;15.40;;;;;;;14.84;37.00;102610.63;5055857;28;20040;-71
2021/03/04 03:04:48;;;;;;;21.65;15.25;;;;;;;14.51;37.60;102604.19;5055906;28;20104;-70
2021/03/04 03:07:14;;;;;;;20.75;16.88;;;;;;;14.27;38.17;102606.91;5055875;28;20029;-71
2021/03/04 03:09:43;;;;;;;20.42;14.80;;;;;;;14.12;38.49;102607.88;5055853;28;20424;-71
2021/03/04 03:12:15;;;;;;;18.25;13.52;;;;;;;14.13;38.53;102614.19;5055709;28;20029;-70
2021/03/04 03:14:41;;;;;;;17.58;12.90;;;;;;;14.21;38.95;102610.00;5055787;28;20427;-70
2021/03/04 03:17:07;;;;;;;15.95;11.43;;;;;;;13.79;39.71;102598.63;5054308;28;20475;-70
2021/03/04 03:19:34;;;;;;;14.85;12.05;;;;;;;13.50;40.21;102600.53;5055666;28;20035;-70
2021/03/04 03:22:00;;;;;;;15.45;11.80;;;;;;;13.04;41.02;102592.59;5054366;28;20043;-71
2021/03/04 03:24:26;;;;;;;15.98;11.63;;;;;;;13.18;40.90;102599.09;5055198;28;20439;-71
2021/03/04 03:26:52;;;;;;;16.52;10.82;;;;;;;13.25;40.87;102596.06;5055550;28;20119;-70
2021/03/04 03:29:19;;;;;;;18.35;12.70;;;;;;;13.36;40.62;102600.34;5055246;28;20045;-71
2021/03/04 03:31:48;;;;;;;15.40;11.50;;;;;;;13.07;40.88;102592.03;5055689;28;20040;-71
2021/03/04 03:34:14;;;;;;;20.50;13.82;;;;;;;13.47;40.04;102590.13;5055331;28;20029;-71
2021/03/04 03:36:39;;;;;;;15.23;12.07;;;;;;;13.50;39.75;102584.06;5055333;28;20096;-70
2021/03/04 03:39:08;;;;;;;17.95;12.68;;;;;;;13.62;39.46;102589.19;5055097;28;20072;-71
2021/03/04 03:41:35;;;;;;;15.70;12.10;;;;;;;13.64;39.48;102587.78;5055250;28;20123;-70
2021/03/04 03:44:01;;;;;;;17.70;13.27;;;;;;;13.65;39.59;102583.91;5055177;28;20068;-70
2021/03/04 03:46:31;;;;;;;18.05;12.27;;;;;;;13.37;39.56;102596.50;5055261;28;20487;-71
2021/03/04 03:49:02;;;;;;;18.20;12.07;;;;;;;13.40;39.62;102592.38;5053801;28;20395;-71
2021/03/04 03:51:30;;;;;;;15.85;11.73;;;;;;;13.41;39.61;102588.53;5055166;28;20025;-71
2021/03/04 03:53:58;;;;;;;20.67;12.75;;;;;;;13.38;39.75;102591.84;5054889;28;20154;-76
2021/03/04 03:56:24;;;;;;;18.42;12.90;;;;;;;13.36;39.79;102591.31;5053981;28;20058;-70
2021/03/04 03:58:50;;;;;;;16.73;12.40;;;;;;;13.08;39.86;102587.38;5055043;28;20029;-70
2021/03/04 04:01:18;;;;;;;18.15;13.00;;;;;;;13.04;39.91;102587.13;5054847;28;20017;-71
2021/03/04 04:03:44;;;;;;;19.33;14.02;;;;;;;13.39;38.96;102586.06;5054055;28;20048;-70
2021/03/04 04:06:09;;;;;;;16.63;13.18;;;;;;;13.63;38.55;102588.06;5054748;28;20110;-70
2021/03/04 04:08:36;;;;;;;14.17;11.47;;;;;;;13.49;38.90;102593.41;5054303;28;20668;-71
2021/03/04 04:11:01;;;;;;;15.52;11.80;;;;;;;13.51;38.46;102591.19;5054749;28;20376;-71
2021/03/04 04:13:27;;;;;;;15.38;9.93;;;;;;;13.09;39.61;102591.75;5054684;28;20029;-71
2021/03/04 04:15:52;;;;;;;14.63;11.38;;;;;;;13.13;39.05;102588.16;5054616;28;20029;-71
2021/03/04 04:18:20;;;;;;;15.57;10.70;;;;;;;13.41;38.91;102597.59;5051761;28;20108;-70
2021/03/04 04:20:47;;;;;;;15.50;11.93;;;;;;;14.06;37.73;102598.06;5054495;28;20364;-70
2021/03/04 04:23:13;;;;;;;14.52;9.90;;;;;;;14.33;37.13;102585.66;5054327;28;20036;-70
2021/03/04 04:25:47;;;;;;;12.95;10.98;;;;;;;14.65;36.48;102588.56;5054404;28;20112;-70
2021/03/04 04:28:12;;;;;;;13.77;10.65;;;;;;;14.93;36.04;102584.06;5053824;28;20059;-70
2021/03/04 04:30:38;;;;;;;12.52;9.45;;;;;;;14.82;36.09;102582.59;5053526;28;20033;-71
2021/03/04 04:33:04;;;;;;;13.07;9.85;;;;;;;15.04;36.08;102583.91;5053741;28;20456;-71
2021/03/04 04:35:30;;;;;;;13.75;10.32;;;;;;;15.10;35.74;102586.28;5054148;28;20039;-71
2021/03/04 04:37:55;;;;;;;13.45;10.32;;;;;;;15.17;35.63;102583.16;5053181;28;20029;-74
2021/03/04 04:40:21;;;;;;;22.27;10.95;;;;;;;15.22;35.47;102586.66;5053938;28;20049;-70
2021/03/04 04:42:46;;;;;;;14.80;10.88;;;;;;;15.17;35.73;102583.97;5052819;28;20037;-74
2021/03/04 04:45:12;;;;;;;13.60;10.43;;;;;;;15.26;35.40;102581.34;5053865;28;20029;-70
2021/03/04 04:47:38;;;;;;;16.35;10.57;;;;;;;14.98;35.50;102584.00;5054026;28;20033;-71
2021/03/04 04:50:05;;;;;;;10.40;8.48;;;;;;;14.53;36.33;102581.88;5053892;28;20051;-70
2021/03/04 04:52:30;;;;;;;13.25;9.60;;;;;;;14.60;36.42;102580.41;5053695;28;20518;-71
2021/03/04 04:54:56;;;;;;;13.52;8.65;;;;;;;14.62;36.53;102575.41;5053099;28;20064;-71
2021/03/04 04:57:22;;;;;;;14.25;10.60;;;;;;;14.81;36.23;102577.34;5053534;28;20061;-71
2021/03/04 04:59:49;;;;;;;17.23;10.07;;;;;;;14.94;35.85;102571.94;5053726;28;20036;-70
2021/03/04 05:02:15;;;;;;;10.30;8.20;;;;;;;14.68;36.29;102576.19;5052465;28;20399;-71
2021/03/04 05:04:40;;;;;;;12.18;8.57;;;;;;;14.36;36.68;102574.91;5053773;28;20025;-70
2021/03/04 05:07:06;;;;;;;11.63;8.57;;;;;;;14.27;37.18;102573.91;5053632;28;20033;-70
2021/03/04 05:09:32;;;;;;;12.95;9.15;;;;;;;14.24;37.29;102571.75;5053483;28;20032;-71
2021/03/04 05:11:58;;;;;;;13.52;8.00;;;;;;;14.63;36.77;102563.28;5053577;28;20033;-72
2021/03/04 05:14:23;;;;;;;12.57;7.80;;;;;;;14.70;36.65;102557.44;5052264;28;20040;-71
2021/03/04 05:16:49;;;;;;;14.80;8.50;;;;;;;14.71;36.69;102564.56;5053750;28;20025;-70
2021/03/04 05:19:15;;;;;;;17.13;8.82;;;;;;;14.68;36.94;102557.72;5053446;28;20533;-71
2021/03/04 05:21:40;;;;;;;17.02;8.30;;;;;;;14.74;36.90;102575.00;5053189;28;20230;-70
2021/03/04 05:24:07;;;;;;;11.63;8.98;;;;;;;14.57;37.21;102580.16;5053271;28;20083;-70
2021/03/04 05:26:32;;;;;;;12.65;9.45;;;;;;;14.63;36.85;102581.72;5053303;28;20064;-71
2021/03/04 05:28:58;;;;;;;11.95;8.98;;;;;;;14.82;36.89;102574.31;5053184;28;20436;-71
2021/03/04 05:31:24;;;;;;;15.52;10.60;;;;;;;14.85;36.55;102578.41;5053180;28;20029;-70
2021/03/04 05:33:49;;;;;;;13.82;9.88;;;;;;;14.86;36.67;102571.78;5053029;28;20028;-70
2021/03/04 05:36:15;;;;;;;15.98;10.43;;;;;;;14.87;36.58;102573.41;5053026;28;20067;-71
2021/03/04 05:38:41;;;;;;;12.82;9.70;;;;;;;14.88;36.62;102573.13;5053095;28;20028;-70
2021/03/04 05:41:08;;;;;;;13.95;9.45;;;;;;;14.82;36.39;102577.06;5052544;28;20095;-71
2021/03/04 05:43:36;;;;;;;16.88;10.30;;;;;;;15.01;36.25;102574.31;5052765;28;20035;-71
2021/03/04 05:46:03;;;;;;;14.85;10.45;;;;;;;15.03;36.28;102577.56;5051521;28;20040;-69
2021/03/04 05:48:29;;;;;;;11.27;9.00;;;;;;;15.03;36.21;102571.25;5052946;28;20104;-69
2021/03/04 05:50:57;;;;;;;20.75;12.52;;;;;;;14.90;36.48;102578.34;5052877;28;20028;-70
2021/03/04 05:53:24;;;;;;;14.63;11.07;;;;;;;15.06;36.18;102581.69;5052656;28;20490;-70
2021/03/04 05:55:51;;;;;;;15.35;10.25;;;;;;;15.08;36.18;102579.44;5052981;28;20095;-69
2021/03/04 05:58:17;;;;;;;15.30;10.55;;;;;;;14.98;36.36;102577.66;5052705;28;20475;-69
2021/03/04 06:00:44;;;;;;;17.77;11.82;;;;;;;15.05;36.05;102580.06;5052622;28;20025;-69
2021/03/04 06:03:11;;;;;;;19.02;12.75;;;;;;;15.02;36.32;102572.38;5052602;28;20081;-70
2021/03/04 06:05:37;;;;;;;36.83;13.68;;;;;;;14.99;36.15;102574.63;5052484;28;20475;-74
2021/03/04 06:08:05;;;;;;;19.10;11.18;;;;;;;14.97;36.03;102579.59;5052325;28;20453;-73
2021/03/04 06:10:31;;;;;;;16.60;11.77;;;;;;;15.12;35.96;102575.00;5052449;28;20032;-73
2021/03/04 06:12:57;;;;;;;13.13;9.88;;;;;;;14.91;36.21;102577.22;5051861;28;20040;-73
2021/03/04 06:15:24;;;;;;;17.33;11.02;;;;;;;14.99;36.15;102577.38;5052428;28;20503;-73
2021/03/04 06:17:57;;;;;;;13.10;9.40;;;;;;;14.98;36.07;102585.94;5052691;28;20107;-74
2021/03/04 06:20:23;;;;;;;16.05;9.50;;;;;;;15.05;36.01;102582.81;5052271;28;20036;-71
2021/03/04 06:22:51;;;;;;;17.58;10.35;;;;;;;15.05;36.01;102580.88;5052451;28;20039;-71
2021/03/04 06:25:17;;;;;;;20.30;11.75;;;;;;;15.04;36.01;102578.38;5052011;28;20112;-72
2021/03/04 06:27:46;;;;;;;20.50;11.18;;;;;;;14.92;36.16;102579.69;5052316;28;20106;-75
2021/03/04 06:30:14;;;;;;;15.50;8.90;;;;;;;14.94;36.38;102584.88;5052340;28;20033;-70
2021/03/04 06:33:00;;;;;;;16.23;8.90;;;;;;;15.13;35.97;102579.38;5052198;28;20033;-71
2021/03/04 06:35:37;;;;;;;12.43;7.70;;;;;;;14.97;36.04;102579.59;5052373;28;20029;-71
2021/03/04 06:38:21;;;;;;;9.93;6.80;;;;;;;14.46;36.78;102585.00;5052260;28;20023;-70
2021/03/04 06:40:48;;;;;;;10.43;6.45;;;;;;;14.27;37.24;102582.16;5051419;28;20048;-71
2021/03/04 06:43:21;;;;;;;10.07;6.82;;;;;;;14.36;37.32;102585.91;5051836;28;20055;-70
2021/03/04 06:45:47;;;;;;;9.98;6.72;;;;;;;14.34;36.78;102593.63;5051208;28;20025;-70
2021/03/04 06:48:22;;;;;;;16.20;7.50;;;;;;;14.08;36.69;102586.78;5052055;28;20109;-70
2021/03/04 06:50:50;;;;;;;12.63;6.95;;;;;;;14.16;36.81;102591.63;5052205;28;20483;-70
2021/03/04 06:53:23;;;;;;;16.65;7.93;;;;;;;14.37;36.19;102590.28;5052129;28;20021;-71
2021/03/04 06:56:04;;;;;;;10.18;7.22;;;;;;;14.16;35.93;102591.63;5052393;28;20445;-71
2021/03/04 06:58:31;;;;;;;11.32;6.65;;;;;;;14.34;35.67;102590.88;5052135;28;20023;-71
2021/03/04 07:01:15;;;;;;;16.67;7.43;;;;;;;14.21;36.14;102594.34;5051974;28;20440;-70
2021/03/04 07:03:48;;;;;;;10.90;6.75;;;;;;;14.06;36.71;102592.59;5052012;28;20028;-70
2021/03/04 07:06:16;;;;;;;12.02;6.80;;;;;;;13.86;37.60;102606.53;5052236;28;20039;-76
2021/03/04 07:08:43;;;;;;;12.55;7.53;;;;;;;13.75;37.97;102597.56;5048459;28;20079;-72
2021/03/04 07:11:12;;;;;;;14.60;7.90;;;;;;;13.99;37.57;102591.28;5051431;28;20112;-70
2021/03/04 07:13:39;;;;;;;11.23;6.32;;;;;;;13.58;38.30;102605.41;5050616;28;20048;-70
2021/03/04 07:16:07;;;;;;;21.40;9.57;;;;;;;14.07;37.91;102607.13;5051587;28;20649;-70
2021/03/04 07:18:39;;;;;;;11.65;7.18;;;;;;;14.11;38.22;102610.94;5051836;28;20112;-71
2021/03/04 07:21:08;;;;;;;13.27;7.45;;;;;;;13.68;39.11;102612.72;5039795;28;20045;-70
2021/03/04 07:23:41;;;;;;;11.55;7.22;;;;;;;13.62;38.60;102608.41;5035827;28;20020;-71
2021/03/04 07:26:10;;;;;;;13.50;8.23;;;;;;;13.81;38.79;102618.38;5035139;28;20021;-71
2021/03/04 07:28:37;;;;;;;13.15;8.93;;;;;;;14.01;38.49;102619.28;5035440;28;20462;-71
2021/03/04 07:31:05;;;;;;;16.63;7.75;;;;;;;13.64;39.22;102618.00;5034774;28;20025;-71
2021/03/04 07:33:31;;;;;;;11.85;7.40;;;;;;;13.70;39.01;102625.09;5034872;28;20035;-70
2021/03/04 07:36:01;;;;;;;15.18;8.55;;;;;;;13.65;38.36;102629.78;5051686;28;20079;-69
2021/03/04 07:38:29;;;;;;;20.60;9.93;;;;;;;13.60;38.41;102627.91;5044968;28;20608;-70
2021/03/04 07:41:00;;;;;;;15.75;9.25;;;;;;;13.32;38.66;102633.06;5036555;28;20045;-73
2021/03/04 07:43:25;;;;;;;13.75;8.20;;;;;;;13.75;37.87;102632.44;5036135;28;20472;-69
2021/03/04 07:45:51;;;;;;;13.18;8.85;;;;;;;14.14;37.25;102637.84;5036578;28;20285;-69
2021/03/04 07:48:17;;;;;;;18.77;9.20;;;;;;;14.37;37.02;102617.78;5036745;28;20017;-69
2021/03/04 07:50:55;;;;;;;13.80;9.07;;;;;;;14.00;37.66;102631.41;5036940;28;20063;-71
2021/03/04 07:53:21;;;;;;;14.25;9.18;;;;;;;14.04;37.75;102635.19;5037740;28;20096;-69
2021/03/04 07:55:47;;;;;;;15.75;8.02;;;;;;;13.88;37.94;102645.50;5037553;28;20107;-68
2021/03/04 07:58:14;;;;;;;16.30;8.40;;;;;;;14.11;37.47;102641.97;5037691;28;20728;-70
2021/03/04 08:00:41;;;;;;;14.60;7.90;;;;;;;14.10;37.61;102643.09;5036786;28;20854;-71
2021/03/04 08:03:06;;;;;;;14.05;9.02;;;;;;;13.78;38.32;102654.69;5037036;28;20041;-73
2021/03/04 08:05:34;;;;;;;15.93;9.88;;;;;;;13.73;38.32;102649.22;5051967;28;20033;-70
2021/03/04 08:08:19;;;;;;;12.90;8.60;;;;;;;14.08;37.68;102652.75;5052713;28;20033;-71
2021/03/04 08:10:50;;;;;;;20.42;10.65;;;;;;;14.47;37.00;102652.63;5054184;28;20056;-74
2021/03/04 08:13:16;;;;;;;17.83;10.07;;;;;;;13.82;38.34;102652.16;5054151;28;20032;-78
2021/03/04 08:15:44;;;;;;;18.05;10.88;;;;;;;13.68;38.44;102653.94;5039796;28;20037;-68
2021/03/04 08:18:24;;;;;;;21.60;10.13;;;;;;;13.66;38.97;102659.72;5036817;28;21146;-71
2021/03/04 08:20:51;;;;;;;17.52;11.25;;;;;;;13.89;38.36;102656.22;5035944;28;20033;-69
2021/03/04 08:23:18;;;;;;;17.58;10.45;;;;;;;13.92;37.95;102654.03;5036592;28;20210;-69
2021/03/04 08:25:45;;;;;;;16.65;10.30;;;;;;;13.79;38.77;102659.06;5035079;28;20036;-69
2021/03/04 08:28:20;;;;;;;11.77;5.72;;;;;;;13.50;39.38;102656.28;5036114;28;20017;-74
2021/03/04 08:30:46;;;;;;;8.93;4.30;;;;;;;13.28;39.54;102662.19;5036110;28;20431;-70
2021/03/04 08:33:13;;;;;;;7.88;4.25;;;;;;;13.67;38.90;102653.09;5035244;28;20162;-73
2021/03/04 08:35:46;;;;;;;10.75;4.05;;;;;;;13.32;39.85;102663.28;5039828;28;20124;-73
2021/03/04 08:38:19;;;;;;;3.78;2.38;;;;;;;13.25;40.31;102661.94;5052733;28;20025;-71
2021/03/04 08:40:47;;;;;;;4.82;2.20;;;;;;;13.32;40.21;102666.00;5053144;28;20108;-72
2021/03/04 08:43:18;;;;;;;5.75;2.60;;;;;;;13.36;40.31;102668.19;5052050;28;20029;-70
2021/03/04 08:45:45;;;;;;;5.18;2.58;;;;;;;13.21;40.04;102664.44;5053288;28;20103;-73
2021/03/04 08:48:13;;;;;;;3.40;1.55;;;;;;;13.12;40.13;102657.06;5051205;28;20063;-70
2021/03/04 08:50:40;;;;;;;8.38;2.08;;;;;;;13.44;40.42;102668.38;5050235;28;20437;-71
2021/03/04 08:53:15;;;;;;;5.82;1.73;;;;;;;12.98;42.19;102671.38;5048347;28;20051;-70
2021/03/04 08:55:48;;;;;;;3.92;1.20;;;;;;;13.48;40.91;102657.66;5052585;28;20040;-69
2021/03/04 08:58:14;;;;;;;3.97;1.30;;;;;;;13.29;41.43;102669.31;5052335;28;20112;-70
2021/03/04 09:00:40;;;;;;;3.45;1.10;;;;;;;13.12;41.54;102663.34;5052878;28;20124;-72
2021/03/04 09:03:10;;;;;;;3.50;1.50;;;;;;;13.37;41.31;102661.59;5052566;28;20036;-71
2021/03/04 09:05:36;;;;;;;10.20;2.72;;;;;;;13.43;40.50;102672.25;5052684;28;20060;-76
2021/03/04 09:08:31;;;;;;;2.33;0.75;;;;;;;13.39;40.35;102671.19;5052918;28;20032;-71
2021/03/04 09:10:57;;;;;;;1.00;0.70;;;;;;;13.14;40.01;102663.88;5050928;28;20037;-69
2021/03/04 09:13:26;;;;;;;10.50;2.65;;;;;;;13.38;39.89;102671.47;5052907;28;20525;-71
2021/03/04 09:15:55;;;;;;;1.80;1.02;;;;;;;13.71;39.84;102676.16;5052527;28;20021;-71
2021/03/04 09:18:22;;;;;;;4.30;2.08;;;;;;;13.73;39.52;102667.63;5051298;28;20033;-68
2021/03/04 09:20:49;;;;;;;9.90;3.15;;;;;;;14.22;38.50;102675.72;5052444;28;20493;-72
2021/03/04 09:23:16;;;;;;;5.90;3.00;;;;;;;13.52;39.58;102675.19;5052004;28;20036;-75
2021/03/04 09:25:42;;;;;;;10.57;4.75;;;;;;;13.48;39.39;102671.41;5052174;28;20021;-75
2021/03/04 09:28:12;;;;;;;8.20;4.50;;;;;;;13.49;39.21;102675.78;5050815;28;20021;-74
2021/03/04 09:30:37;;;;;;;;;;;;;;;13.64;38.93;102675.66;5050110;28;20102;-73
2021/03/04 09:33:03;;;;;;;11.73;4.70;;;;;;;13.63;39.21;102671.28;5049857;28;20434;-70
2021/03/04 09:35:29;;;;;;;12.85;4.10;;;;;;;13.46;39.40;102666.19;5051768;28;20163;-76
2021/03/04 09:38:05;;;;;;;9.77;4.57;;;;;;;13.21;39.52;102669.91;5048517;28;20025;-75
2021/03/04 09:40:31;;;;;;;6.07;3.53;;;;;;;13.36;39.59;102677.25;5043822;28;20055;-72
2021/03/04 09:42:57;;;;;;;6.05;3.90;;;;;;;13.46;39.63;102676.38;5051568;28;20025;-74
2021/03/04 09:45:24;;;;;;;11.57;5.28;;;;;;;13.50;39.65;102671.94;5048965;28;20143;-75
2021/03/04 09:47:50;;;;;;;11.88;4.97;;;;;;;13.80;38.84;102668.94;5048691;28;20105;-74
2021/03/04 09:50:24;;;;;;;13.05;6.72;;;;;;;13.81;38.39;102673.31;5046731;28;20517;-76
2021/03/04 09:53:07;;;;;;;10.77;5.75;;;;;;;13.80;38.63;102663.44;5052027;28;20028;-76
2021/03/04 09:55:39;;;;;;;12.02;6.57;;;;;;;14.05;38.69;102669.81;5052052;28;20025;-70
2021/03/04 09:58:12;;;;;;;18.42;7.65;;;;;;;14.32;38.26;102669.28;5051771;28;20083;-69
2021/03/04 10:00:38;;;;;;;9.90;5.78;;;;;;;14.33;38.10;102673.66;5050394;28;20036;-70
2021/03/04 10:03:09;;;;;;;10.52;5.78;;;;;;;14.07;39.00;102664.88;5052217;28;20024;-72
2021/03/04 10:05:45;;;;;;;10.60;5.18;;;;;;;13.82;38.98;102669.47;5051732;28;20033;-70
2021/03/04 10:08:10;;;;;;;19.02;7.90;;;;;;;14.03;38.37;102675.59;5050109;28;20028;-80
2021/03/04 10:10:36;;;;;;;16.00;6.88;;;;;;;14.15;37.75;102677.97;5052051;28;20017;-80
2021/03/04 10:13:02;;;;;;;13.05;7.43;;;;;;;14.33;37.55;102677.22;5049409;28;20028;-69
2021/03/04 10:15:39;;;;;;;12.90;6.90;;;;;;;14.28;38.02;102687.44;5052107;28;20033;-69
2021/03/04 10:18:10;;;;;;;9.07;5.57;;;;;;;14.49;37.81;102680.66;5052563;28;20029;-71
2021/03/04 10:20:37;;;;;;;22.05;7.38;;;;;;;14.44;38.06;102687.03;5052204;28;20021;-71
2021/03/04 10:23:05;;;;;;;22.02;9.60;;;;;;;14.20;38.21;102683.41;5048580;28;20028;-75
2021/03/04 10:25:30;;;;;;;16.67;8.95;;;;;;;14.25;38.26;102679.78;5050497;28;20021;-68
2021/03/04 10:27:59;;;;;;;11.70;7.55;;;;;;;14.60;37.81;102684.94;5050549;28;20357;-69
2021/03/04 10:30:26;;;;;;;16.90;9.40;;;;;;;14.48;37.63;102686.47;5049759;28;20112;-74
2021/03/04 10:32:53;;;;;;;16.83;9.15;;;;;;;14.34;37.91;102694.53;5052116;28;20032;-75
2021/03/04 10:35:20;;;;;;;14.88;8.77;;;;;;;14.19;38.08;102690.00;5051469;28;20025;-77
2021/03/04 10:37:45;;;;;;;15.90;8.10;;;;;;;14.24;37.62;102695.47;5050412;28;20029;-77
2021/03/04 10:40:13;;;;;;;32.13;10.52;;;;;;;14.51;37.52;102696.88;5050226;28;20049;-76
2021/03/04 10:42:39;;;;;;;16.58;8.98;;;;;;;14.60;37.39;102695.94;5045094;28;20068;-76
2021/03/04 10:45:07;;;;;;;15.75;8.57;;;;;;;14.58;36.98;102695.41;5035004;28;20053;-75
2021/03/04 10:47:32;;;;;;;16.67;9.25;;;;;;;14.65;36.93;102695.06;5038493;28;20029;-76
2021/03/04 10:49:59;;;;;;;15.20;9.63;;;;;;;14.47;37.46;102699.41;5051465;28;20036;-77
2021/03/04 10:52:25;;;;;;;23.98;10.02;;;;;;;14.57;37.43;102695.69;5051431;28;20025;-78
2021/03/04 10:54:52;;;;;;;32.28;13.55;;;;;;;14.75;36.90;102697.69;5052049;28;20522;-76
2021/03/04 10:57:18;;;;;;;17.25;10.63;;;;;;;14.82;36.94;102702.84;5051439;28;20039;-77
2021/03/04 10:59:43;;;;;;;23.38;11.55;;;;;;;14.90;37.38;102704.94;5044114;28;20033;-74
2021/03/04 11:02:09;;;;;;;24.27;14.90;;;;;;;15.12;37.09;102705.22;5050728;28;20028;-77
2021/03/04 11:04:35;;;;;;;23.83;13.52;;;;;;;15.17;36.90;102709.81;5048250;28;20047;-69
2021/03/04 11:07:00;;;;;;;21.65;13.45;;;;;;;15.09;37.06;102704.97;5051684;28;20756;-78
2021/03/04 11:09:26;;;;;;;31.33;14.85;;;;;;;15.11;36.61;102705.47;5051612;28;20107;-78
2021/03/04 11:11:51;;;;;;;34.28;15.60;;;;;;;15.18;36.33;102701.25;5050985;28;20029;-72
2021/03/04 11:14:17;;;;;;;25.70;14.88;;;;;;;15.40;35.97;102708.09;5055596;28;20021;-74
2021/03/04 11:16:43;;;;;;;26.67;17.35;;;;;;;15.54;35.66;102707.06;5049170;28;20021;-77
2021/03/04 11:19:09;;;;;;;27.05;14.02;;;;;;;15.71;35.37;102708.50;5045784;28;20404;-77